sensor_id;sensor_type;location;lat;lon;timestamp;temperature;humidity
4840;DHT22;2434;48.486;7.964;2023-07-31T00:00:44;17.90;56.60
4840;DHT22;2434;48.486;7.964;2023-07-31T00:03:13;17.90;57.40
4840;DHT22;2434;48.486;7.964;2023-07-31T00:05:41;17.90;56.90
4840;DHT22;2434;48.486;7.964;2023-07-31T00:08:11;17.90;55.80
4840;DHT22;2434;48.486;7.964;2023-07-31T00:10:39;17.80;55.30
4840;DHT22;2434;48.486;7.964;2023-07-31T00:13:07;17.80;55.50
4840;DHT22;2434;48.486;7.964;2023-07-31T00:15:35;17.80;55.60
4840;DHT22;2434;48.486;7.964;2023-07-31T00:18:05;17.80;55.70
4840;DHT22;2434;48.486;7.964;2023-07-31T00:20:33;17.70;55.60
4840;DHT22;2434;48.486;7.964;2023-07-31T00:23:01;17.70;55.50
4840;DHT22;2434;48.486;7.964;2023-07-31T00:25:29;17.70;55.60
4840;DHT22;2434;48.486;7.964;2023-07-31T00:27:58;17.70;56.80
4840;DHT22;2434;48.486;7.964;2023-07-31T00:30:26;17.70;56.10
4840;DHT22;2434;48.486;7.964;2023-07-31T00:32:55;17.70;56.20
4840;DHT22;2434;48.486;7.964;2023-07-31T00:35:24;17.60;56.70
4840;DHT22;2434;48.486;7.964;2023-07-31T00:37:52;17.60;55.70
4840;DHT22;2434;48.486;7.964;2023-07-31T00:40:21;17.60;55.80
4840;DHT22;2434;48.486;7.964;2023-07-31T00:42:49;17.70;55.80
4840;DHT22;2434;48.486;7.964;2023-07-31T00:45:17;17.60;55.80
4840;DHT22;2434;48.486;7.964;2023-07-31T00:47:46;17.60;55.70
4840;DHT22;2434;48.486;7.964;2023-07-31T00:50:14;17.60;55.60
4840;DHT22;2434;48.486;7.964;2023-07-31T00:52:44;17.60;56.00
4840;DHT22;2434;48.486;7.964;2023-07-31T00:55:12;17.60;55.70
4840;DHT22;2434;48.486;7.964;2023-07-31T00:57:42;17.60;56.50
4840;DHT22;2434;48.486;7.964;2023-07-31T01:00:11;17.60;56.70
4840;DHT22;2434;48.486;7.964;2023-07-31T01:02:40;17.60;56.70
4840;DHT22;2434;48.486;7.964;2023-07-31T01:05:09;17.60;57.50
4840;DHT22;2434;48.486;7.964;2023-07-31T01:07:44;17.60;56.70
4840;DHT22;2434;48.486;7.964;2023-07-31T01:10:17;17.60;56.60
4840;DHT22;2434;48.486;7.964;2023-07-31T01:12:50;17.50;56.20
4840;DHT22;2434;48.486;7.964;2023-07-31T01:15:19;17.50;55.70
4840;DHT22;2434;48.486;7.964;2023-07-31T01:17:47;17.50;55.80
4840;DHT22;2434;48.486;7.964;2023-07-31T01:20:18;17.40;55.60
4840;DHT22;2434;48.486;7.964;2023-07-31T01:26:05;17.50;55.70
4840;DHT22;2434;48.486;7.964;2023-07-31T01:28:43;17.40;55.90
4840;DHT22;2434;48.486;7.964;2023-07-31T01:31:18;17.40;55.60
4840;DHT22;2434;48.486;7.964;2023-07-31T01:33:48;17.40;55.90
4840;DHT22;2434;48.486;7.964;2023-07-31T01:36:17;17.40;55.70
4840;DHT22;2434;48.486;7.964;2023-07-31T01:38:46;17.40;55.80
4840;DHT22;2434;48.486;7.964;2023-07-31T01:41:16;17.40;55.60
4840;DHT22;2434;48.486;7.964;2023-07-31T01:43:45;17.30;56.50
4840;DHT22;2434;48.486;7.964;2023-07-31T01:46:13;17.30;55.80
4840;DHT22;2434;48.486;7.964;2023-07-31T01:48:42;17.30;56.20
4840;DHT22;2434;48.486;7.964;2023-07-31T01:51:10;17.30;55.70
4840;DHT22;2434;48.486;7.964;2023-07-31T01:53:38;17.30;55.80
4840;DHT22;2434;48.486;7.964;2023-07-31T01:56:07;17.30;55.60
4840;DHT22;2434;48.486;7.964;2023-07-31T01:58:37;17.30;55.10
4840;DHT22;2434;48.486;7.964;2023-07-31T02:01:05;17.30;55.30
4840;DHT22;2434;48.486;7.964;2023-07-31T02:03:34;17.30;55.10
4840;DHT22;2434;48.486;7.964;2023-07-31T02:06:02;17.20;54.90
4840;DHT22;2434;48.486;7.964;2023-07-31T02:08:30;17.20;55.00
4840;DHT22;2434;48.486;7.964;2023-07-31T02:10:59;17.20;55.10
4840;DHT22;2434;48.486;7.964;2023-07-31T02:13:27;17.20;55.20
4840;DHT22;2434;48.486;7.964;2023-07-31T02:15:57;17.20;54.80
4840;DHT22;2434;48.486;7.964;2023-07-31T02:18:25;17.20;54.90
4840;DHT22;2434;48.486;7.964;2023-07-31T02:20:53;17.30;54.90
4840;DHT22;2434;48.486;7.964;2023-07-31T02:23:22;17.30;55.10
4840;DHT22;2434;48.486;7.964;2023-07-31T02:25:50;17.30;55.00
4840;DHT22;2434;48.486;7.964;2023-07-31T02:28:18;17.30;55.10
4840;DHT22;2434;48.486;7.964;2023-07-31T02:30:47;17.30;55.00
4840;DHT22;2434;48.486;7.964;2023-07-31T02:33:17;17.30;55.30
4840;DHT22;2434;48.486;7.964;2023-07-31T02:35:46;17.30;54.90
4840;DHT22;2434;48.486;7.964;2023-07-31T02:38:14;17.30;55.60
4840;DHT22;2434;48.486;7.964;2023-07-31T02:40:42;17.30;56.60
4840;DHT22;2434;48.486;7.964;2023-07-31T02:43:10;17.30;56.30
4840;DHT22;2434;48.486;7.964;2023-07-31T02:45:38;17.30;56.60
4840;DHT22;2434;48.486;7.964;2023-07-31T02:48:07;17.30;56.90
4840;DHT22;2434;48.486;7.964;2023-07-31T02:50:36;17.30;57.40
4840;DHT22;2434;48.486;7.964;2023-07-31T02:53:04;17.30;57.40
4840;DHT22;2434;48.486;7.964;2023-07-31T02:55:33;17.30;58.10
4840;DHT22;2434;48.486;7.964;2023-07-31T02:58:02;17.40;58.10
4840;DHT22;2434;48.486;7.964;2023-07-31T03:00:30;17.40;57.70
4840;DHT22;2434;48.486;7.964;2023-07-31T03:02:58;17.30;58.20
4840;DHT22;2434;48.486;7.964;2023-07-31T03:05:27;17.40;57.80
4840;DHT22;2434;48.486;7.964;2023-07-31T03:07:56;17.30;58.20
4840;DHT22;2434;48.486;7.964;2023-07-31T03:10:25;17.30;58.30
4840;DHT22;2434;48.486;7.964;2023-07-31T03:12:53;17.30;59.00
4840;DHT22;2434;48.486;7.964;2023-07-31T03:15:22;17.30;58.50
4840;DHT22;2434;48.486;7.964;2023-07-31T03:17:50;17.20;59.00
4840;DHT22;2434;48.486;7.964;2023-07-31T03:20:19;17.20;58.50
4840;DHT22;2434;48.486;7.964;2023-07-31T03:22:47;17.20;58.90
4840;DHT22;2434;48.486;7.964;2023-07-31T03:25:17;17.20;59.30
4840;DHT22;2434;48.486;7.964;2023-07-31T03:27:45;17.20;59.30
4840;DHT22;2434;48.486;7.964;2023-07-31T03:30:13;17.30;59.00
4840;DHT22;2434;48.486;7.964;2023-07-31T03:32:41;17.30;58.50
4840;DHT22;2434;48.486;7.964;2023-07-31T03:35:10;17.30;58.70
4840;DHT22;2434;48.486;7.964;2023-07-31T03:37:38;17.30;58.80
4840;DHT22;2434;48.486;7.964;2023-07-31T03:40:07;17.30;59.20
4840;DHT22;2434;48.486;7.964;2023-07-31T03:42:37;17.30;58.60
4840;DHT22;2434;48.486;7.964;2023-07-31T03:45:07;17.30;58.10
4840;DHT22;2434;48.486;7.964;2023-07-31T03:47:35;17.30;58.10
4840;DHT22;2434;48.486;7.964;2023-07-31T03:50:04;17.30;58.60
4840;DHT22;2434;48.486;7.964;2023-07-31T03:52:33;17.20;58.50
4840;DHT22;2434;48.486;7.964;2023-07-31T03:55:01;17.30;58.60
4840;DHT22;2434;48.486;7.964;2023-07-31T03:57:29;17.30;58.50
4840;DHT22;2434;48.486;7.964;2023-07-31T04:00:00;17.20;58.40
4840;DHT22;2434;48.486;7.964;2023-07-31T04:02:38;17.20;57.70
4840;DHT22;2434;48.486;7.964;2023-07-31T04:05:06;17.10;58.30
4840;DHT22;2434;48.486;7.964;2023-07-31T04:07:35;17.20;58.70
4840;DHT22;2434;48.486;7.964;2023-07-31T04:10:04;17.10;58.30
4840;DHT22;2434;48.486;7.964;2023-07-31T04:12:32;17.10;58.80
4840;DHT22;2434;48.486;7.964;2023-07-31T04:15:02;17.10;59.10
4840;DHT22;2434;48.486;7.964;2023-07-31T04:17:30;17.10;59.20
4840;DHT22;2434;48.486;7.964;2023-07-31T04:19:59;17.10;59.40
4840;DHT22;2434;48.486;7.964;2023-07-31T04:22:27;17.10;58.50
4840;DHT22;2434;48.486;7.964;2023-07-31T04:24:56;17.10;58.80
4840;DHT22;2434;48.486;7.964;2023-07-31T04:27:25;17.10;59.20
4840;DHT22;2434;48.486;7.964;2023-07-31T04:29:53;17.10;58.80
4840;DHT22;2434;48.486;7.964;2023-07-31T04:32:23;17.10;58.60
4840;DHT22;2434;48.486;7.964;2023-07-31T04:34:51;17.10;58.90
4840;DHT22;2434;48.486;7.964;2023-07-31T04:37:19;17.10;58.90
4840;DHT22;2434;48.486;7.964;2023-07-31T04:39:47;17.10;58.50
4840;DHT22;2434;48.486;7.964;2023-07-31T04:42:15;17.00;58.60
4840;DHT22;2434;48.486;7.964;2023-07-31T04:44:44;17.00;58.30
4840;DHT22;2434;48.486;7.964;2023-07-31T04:47:12;17.00;58.30
4840;DHT22;2434;48.486;7.964;2023-07-31T04:49:42;17.10;58.50
4840;DHT22;2434;48.486;7.964;2023-07-31T04:52:10;17.10;58.10
4840;DHT22;2434;48.486;7.964;2023-07-31T04:54:38;17.10;58.00
4840;DHT22;2434;48.486;7.964;2023-07-31T04:57:07;17.10;58.50
4840;DHT22;2434;48.486;7.964;2023-07-31T04:59:35;17.10;59.10
4840;DHT22;2434;48.486;7.964;2023-07-31T05:02:04;17.10;59.70
4840;DHT22;2434;48.486;7.964;2023-07-31T05:04:32;17.10;59.90
4840;DHT22;2434;48.486;7.964;2023-07-31T05:07:02;17.10;60.10
4840;DHT22;2434;48.486;7.964;2023-07-31T05:09:30;17.10;60.40
4840;DHT22;2434;48.486;7.964;2023-07-31T05:11:59;17.10;60.50
4840;DHT22;2434;48.486;7.964;2023-07-31T05:14:27;17.10;60.20
4840;DHT22;2434;48.486;7.964;2023-07-31T05:16:55;17.10;60.70
4840;DHT22;2434;48.486;7.964;2023-07-31T05:19:23;17.10;59.80
4840;DHT22;2434;48.486;7.964;2023-07-31T05:21:52;17.10;59.80
4840;DHT22;2434;48.486;7.964;2023-07-31T05:24:21;17.10;59.30
4840;DHT22;2434;48.486;7.964;2023-07-31T05:26:50;17.10;59.70
4840;DHT22;2434;48.486;7.964;2023-07-31T05:29:18;17.10;59.90
4840;DHT22;2434;48.486;7.964;2023-07-31T05:31:46;17.20;59.70
4840;DHT22;2434;48.486;7.964;2023-07-31T05:34:14;17.20;59.80
4840;DHT22;2434;48.486;7.964;2023-07-31T05:36:42;17.10;59.60
4840;DHT22;2434;48.486;7.964;2023-07-31T05:39:11;17.10;60.20
4840;DHT22;2434;48.486;7.964;2023-07-31T05:41:40;17.10;59.80
4840;DHT22;2434;48.486;7.964;2023-07-31T05:44:08;17.10;59.70
4840;DHT22;2434;48.486;7.964;2023-07-31T05:46:37;17.20;59.90
4840;DHT22;2434;48.486;7.964;2023-07-31T05:49:05;17.20;60.30
4840;DHT22;2434;48.486;7.964;2023-07-31T05:51:34;17.20;59.10
4840;DHT22;2434;48.486;7.964;2023-07-31T05:54:02;17.20;59.30
4840;DHT22;2434;48.486;7.964;2023-07-31T05:56:30;17.20;59.30
4840;DHT22;2434;48.486;7.964;2023-07-31T05:59:01;17.30;58.40
4840;DHT22;2434;48.486;7.964;2023-07-31T06:01:30;17.30;58.80
4840;DHT22;2434;48.486;7.964;2023-07-31T06:03:58;17.40;58.90
4840;DHT22;2434;48.486;7.964;2023-07-31T06:06:26;17.30;58.40
4840;DHT22;2434;48.486;7.964;2023-07-31T06:08:55;17.40;57.90
4840;DHT22;2434;48.486;7.964;2023-07-31T06:11:23;17.40;58.10
4840;DHT22;2434;48.486;7.964;2023-07-31T06:13:52;17.50;57.40
4840;DHT22;2434;48.486;7.964;2023-07-31T06:16:21;17.50;56.50
4840;DHT22;2434;48.486;7.964;2023-07-31T06:18:50;17.50;56.40
4840;DHT22;2434;48.486;7.964;2023-07-31T06:21:18;17.60;54.70
4840;DHT22;2434;48.486;7.964;2023-07-31T06:23:46;17.60;55.00
4840;DHT22;2434;48.486;7.964;2023-07-31T06:26:15;17.70;55.60
4840;DHT22;2434;48.486;7.964;2023-07-31T06:28:43;17.70;55.10
4840;DHT22;2434;48.486;7.964;2023-07-31T06:31:12;17.70;55.40
4840;DHT22;2434;48.486;7.964;2023-07-31T06:33:41;17.70;56.20
4840;DHT22;2434;48.486;7.964;2023-07-31T06:36:10;17.70;56.70
4840;DHT22;2434;48.486;7.964;2023-07-31T06:38:38;17.80;55.50
4840;DHT22;2434;48.486;7.964;2023-07-31T06:41:06;17.80;55.60
4840;DHT22;2434;48.486;7.964;2023-07-31T06:43:35;17.80;55.90
4840;DHT22;2434;48.486;7.964;2023-07-31T06:46:05;17.80;56.10
4840;DHT22;2434;48.486;7.964;2023-07-31T06:48:33;17.90;55.70
4840;DHT22;2434;48.486;7.964;2023-07-31T06:51:04;17.90;56.40
4840;DHT22;2434;48.486;7.964;2023-07-31T06:53:33;18.00;56.00
4840;DHT22;2434;48.486;7.964;2023-07-31T06:56:01;18.00;54.80
4840;DHT22;2434;48.486;7.964;2023-07-31T06:58:29;18.10;54.70
4840;DHT22;2434;48.486;7.964;2023-07-31T07:00:58;18.10;54.70
4840;DHT22;2434;48.486;7.964;2023-07-31T07:03:27;18.20;54.20
4840;DHT22;2434;48.486;7.964;2023-07-31T07:05:55;18.20;54.30
4840;DHT22;2434;48.486;7.964;2023-07-31T07:08:25;18.20;53.90
4840;DHT22;2434;48.486;7.964;2023-07-31T07:10:53;18.20;53.80
4840;DHT22;2434;48.486;7.964;2023-07-31T07:13:22;18.30;54.70
4840;DHT22;2434;48.486;7.964;2023-07-31T07:15:51;18.30;54.40
4840;DHT22;2434;48.486;7.964;2023-07-31T07:18:19;18.30;55.10
4840;DHT22;2434;48.486;7.964;2023-07-31T07:20:51;18.40;54.70
4840;DHT22;2434;48.486;7.964;2023-07-31T07:23:20;18.40;55.00
4840;DHT22;2434;48.486;7.964;2023-07-31T07:25:50;18.50;56.20
4840;DHT22;2434;48.486;7.964;2023-07-31T07:28:20;18.60;56.50
4840;DHT22;2434;48.486;7.964;2023-07-31T07:30:51;18.70;54.60
4840;DHT22;2434;48.486;7.964;2023-07-31T07:33:20;18.80;55.50
4840;DHT22;2434;48.486;7.964;2023-07-31T07:35:48;18.80;52.60
4840;DHT22;2434;48.486;7.964;2023-07-31T07:38:17;18.90;52.10
4840;DHT22;2434;48.486;7.964;2023-07-31T07:40:46;19.00;51.20
4840;DHT22;2434;48.486;7.964;2023-07-31T07:43:18;19.00;52.60
4840;DHT22;2434;48.486;7.964;2023-07-31T07:45:46;19.10;52.20
4840;DHT22;2434;48.486;7.964;2023-07-31T07:48:15;19.10;52.60
4840;DHT22;2434;48.486;7.964;2023-07-31T07:50:44;19.20;49.70
4840;DHT22;2434;48.486;7.964;2023-07-31T07:53:13;19.40;49.00
4840;DHT22;2434;48.486;7.964;2023-07-31T07:55:41;19.40;48.50
4840;DHT22;2434;48.486;7.964;2023-07-31T07:58:09;19.40;50.10
4840;DHT22;2434;48.486;7.964;2023-07-31T08:00:39;19.40;48.60
4840;DHT22;2434;48.486;7.964;2023-07-31T08:03:07;19.40;49.20
4840;DHT22;2434;48.486;7.964;2023-07-31T08:05:36;19.40;48.70
4840;DHT22;2434;48.486;7.964;2023-07-31T08:08:05;19.40;49.90
4840;DHT22;2434;48.486;7.964;2023-07-31T08:10:33;19.50;50.00
4840;DHT22;2434;48.486;7.964;2023-07-31T08:13:01;19.50;48.60
4840;DHT22;2434;48.486;7.964;2023-07-31T08:15:30;19.50;49.00
4840;DHT22;2434;48.486;7.964;2023-07-31T08:17:59;19.60;48.60
4840;DHT22;2434;48.486;7.964;2023-07-31T08:20:27;19.50;49.70
4840;DHT22;2434;48.486;7.964;2023-07-31T08:22:55;19.60;48.80
4840;DHT22;2434;48.486;7.964;2023-07-31T08:25:25;19.60;49.60
4840;DHT22;2434;48.486;7.964;2023-07-31T08:28:02;19.60;51.10
4840;DHT22;2434;48.486;7.964;2023-07-31T08:30:30;19.60;49.30
4840;DHT22;2434;48.486;7.964;2023-07-31T08:33:00;19.60;49.60
4840;DHT22;2434;48.486;7.964;2023-07-31T08:35:28;19.60;49.50
4840;DHT22;2434;48.486;7.964;2023-07-31T08:37:56;19.70;49.10
4840;DHT22;2434;48.486;7.964;2023-07-31T08:40:24;19.60;49.40
4840;DHT22;2434;48.486;7.964;2023-07-31T08:42:55;19.60;49.40
4840;DHT22;2434;48.486;7.964;2023-07-31T08:45:30;19.70;50.20
4840;DHT22;2434;48.486;7.964;2023-07-31T08:47:59;19.70;48.10
4840;DHT22;2434;48.486;7.964;2023-07-31T08:50:27;19.70;48.60
4840;DHT22;2434;48.486;7.964;2023-07-31T08:52:56;19.80;48.20
4840;DHT22;2434;48.486;7.964;2023-07-31T08:55:25;19.80;48.80
4840;DHT22;2434;48.486;7.964;2023-07-31T08:57:54;19.90;50.70
4840;DHT22;2434;48.486;7.964;2023-07-31T09:00:24;20.10;47.60
4840;DHT22;2434;48.486;7.964;2023-07-31T09:02:59;20.20;47.40
4840;DHT22;2434;48.486;7.964;2023-07-31T09:05:30;20.20;45.50
4840;DHT22;2434;48.486;7.964;2023-07-31T09:08:00;20.30;45.20
4840;DHT22;2434;48.486;7.964;2023-07-31T09:10:28;20.30;45.70
4840;DHT22;2434;48.486;7.964;2023-07-31T09:12:58;20.40;46.20
4840;DHT22;2434;48.486;7.964;2023-07-31T09:15:27;20.50;46.70
4840;DHT22;2434;48.486;7.964;2023-07-31T09:18:07;20.70;48.00
4840;DHT22;2434;48.486;7.964;2023-07-31T09:20:36;21.00;45.70
4840;DHT22;2434;48.486;7.964;2023-07-31T09:23:06;21.00;43.50
4840;DHT22;2434;48.486;7.964;2023-07-31T09:25:36;21.10;42.80
4840;DHT22;2434;48.486;7.964;2023-07-31T09:28:06;21.30;42.90
4840;DHT22;2434;48.486;7.964;2023-07-31T09:30:46;21.40;41.70
4840;DHT22;2434;48.486;7.964;2023-07-31T09:33:17;21.30;41.50
4840;DHT22;2434;48.486;7.964;2023-07-31T09:35:46;21.40;42.10
4840;DHT22;2434;48.486;7.964;2023-07-31T09:38:16;21.40;42.10
4840;DHT22;2434;48.486;7.964;2023-07-31T09:40:46;21.40;43.00
4840;DHT22;2434;48.486;7.964;2023-07-31T09:43:18;21.30;40.90
4840;DHT22;2434;48.486;7.964;2023-07-31T09:45:46;21.30;42.10
4840;DHT22;2434;48.486;7.964;2023-07-31T09:48:17;21.30;41.30
4840;DHT22;2434;48.486;7.964;2023-07-31T09:50:47;21.20;42.70
4840;DHT22;2434;48.486;7.964;2023-07-31T09:53:16;21.20;43.70
4840;DHT22;2434;48.486;7.964;2023-07-31T09:55:45;21.30;43.20
4840;DHT22;2434;48.486;7.964;2023-07-31T09:58:13;21.30;43.50
4840;DHT22;2434;48.486;7.964;2023-07-31T10:00:41;21.30;41.50
4840;DHT22;2434;48.486;7.964;2023-07-31T10:03:10;21.40;41.90
4840;DHT22;2434;48.486;7.964;2023-07-31T10:05:43;21.70;41.40
4840;DHT22;2434;48.486;7.964;2023-07-31T10:08:15;22.00;39.70
4840;DHT22;2434;48.486;7.964;2023-07-31T10:10:44;22.00;38.10
4840;DHT22;2434;48.486;7.964;2023-07-31T10:13:14;22.10;39.50
4840;DHT22;2434;48.486;7.964;2023-07-31T10:15:43;22.10;40.20
4840;DHT22;2434;48.486;7.964;2023-07-31T10:18:11;22.20;36.50
4840;DHT22;2434;48.486;7.964;2023-07-31T10:20:41;22.20;36.90
4840;DHT22;2434;48.486;7.964;2023-07-31T10:23:10;22.20;37.00
4840;DHT22;2434;48.486;7.964;2023-07-31T10:25:40;22.30;36.50
4840;DHT22;2434;48.486;7.964;2023-07-31T10:28:09;22.20;37.60
4840;DHT22;2434;48.486;7.964;2023-07-31T10:30:38;22.10;36.90
4840;DHT22;2434;48.486;7.964;2023-07-31T10:33:08;22.10;37.10
4840;DHT22;2434;48.486;7.964;2023-07-31T10:35:36;22.00;37.90
4840;DHT22;2434;48.486;7.964;2023-07-31T10:38:12;22.00;37.10
4840;DHT22;2434;48.486;7.964;2023-07-31T10:40:41;21.80;37.80
4840;DHT22;2434;48.486;7.964;2023-07-31T10:43:23;21.80;38.80
4840;DHT22;2434;48.486;7.964;2023-07-31T10:45:53;21.80;39.40
4840;DHT22;2434;48.486;7.964;2023-07-31T10:48:21;21.80;39.20
4840;DHT22;2434;48.486;7.964;2023-07-31T10:50:52;21.70;39.70
4840;DHT22;2434;48.486;7.964;2023-07-31T10:53:26;21.70;43.80
4840;DHT22;2434;48.486;7.964;2023-07-31T10:55:58;21.70;44.40
4840;DHT22;2434;48.486;7.964;2023-07-31T10:58:26;21.70;43.70
4840;DHT22;2434;48.486;7.964;2023-07-31T11:00:56;21.70;40.90
4840;DHT22;2434;48.486;7.964;2023-07-31T11:03:26;21.70;40.80
4840;DHT22;2434;48.486;7.964;2023-07-31T11:06:01;21.70;40.30
4840;DHT22;2434;48.486;7.964;2023-07-31T11:08:33;21.70;39.40
4840;DHT22;2434;48.486;7.964;2023-07-31T11:11:06;21.60;42.40
4840;DHT22;2434;48.486;7.964;2023-07-31T11:13:41;21.60;43.40
4840;DHT22;2434;48.486;7.964;2023-07-31T11:16:10;21.60;41.30
4840;DHT22;2434;48.486;7.964;2023-07-31T11:18:39;21.60;41.10
4840;DHT22;2434;48.486;7.964;2023-07-31T11:21:08;21.70;41.40
4840;DHT22;2434;48.486;7.964;2023-07-31T11:23:40;21.70;41.00
4840;DHT22;2434;48.486;7.964;2023-07-31T11:26:09;21.70;41.80
4840;DHT22;2434;48.486;7.964;2023-07-31T11:28:37;21.70;42.20
4840;DHT22;2434;48.486;7.964;2023-07-31T11:31:10;21.80;43.20
4840;DHT22;2434;48.486;7.964;2023-07-31T11:33:38;21.80;41.50
4840;DHT22;2434;48.486;7.964;2023-07-31T11:36:14;22.00;40.60
4840;DHT22;2434;48.486;7.964;2023-07-31T11:38:45;22.00;39.50
4840;DHT22;2434;48.486;7.964;2023-07-31T11:41:14;22.20;40.90
4840;DHT22;2434;48.486;7.964;2023-07-31T11:43:45;22.30;39.20
4840;DHT22;2434;48.486;7.964;2023-07-31T11:46:14;22.30;40.10
4840;DHT22;2434;48.486;7.964;2023-07-31T11:48:43;22.50;40.70
4840;DHT22;2434;48.486;7.964;2023-07-31T11:51:13;22.60;37.80
4840;DHT22;2434;48.486;7.964;2023-07-31T11:53:45;22.70;37.70
4840;DHT22;2434;48.486;7.964;2023-07-31T11:56:17;22.80;36.50
4840;DHT22;2434;48.486;7.964;2023-07-31T11:58:47;22.90;36.90
4840;DHT22;2434;48.486;7.964;2023-07-31T12:01:19;23.00;37.30
4840;DHT22;2434;48.486;7.964;2023-07-31T12:03:48;23.00;35.60
4840;DHT22;2434;48.486;7.964;2023-07-31T12:06:17;23.00;35.20
4840;DHT22;2434;48.486;7.964;2023-07-31T12:08:49;22.90;37.30
4840;DHT22;2434;48.486;7.964;2023-07-31T12:11:17;23.00;36.50
4840;DHT22;2434;48.486;7.964;2023-07-31T12:13:45;23.10;37.40
4840;DHT22;2434;48.486;7.964;2023-07-31T12:16:14;23.20;35.90
4840;DHT22;2434;48.486;7.964;2023-07-31T12:18:42;23.20;36.80
4840;DHT22;2434;48.486;7.964;2023-07-31T12:21:10;23.30;36.70
4840;DHT22;2434;48.486;7.964;2023-07-31T12:23:40;23.30;36.10
4840;DHT22;2434;48.486;7.964;2023-07-31T12:26:12;23.40;36.20
4840;DHT22;2434;48.486;7.964;2023-07-31T12:28:41;23.50;37.50
4840;DHT22;2434;48.486;7.964;2023-07-31T12:31:11;23.40;37.10
4840;DHT22;2434;48.486;7.964;2023-07-31T12:33:41;23.50;38.30
4840;DHT22;2434;48.486;7.964;2023-07-31T12:36:11;23.60;39.80
4840;DHT22;2434;48.486;7.964;2023-07-31T12:38:39;23.70;37.70
4840;DHT22;2434;48.486;7.964;2023-07-31T12:41:08;23.70;36.40
4840;DHT22;2434;48.486;7.964;2023-07-31T12:43:39;23.80;36.60
4840;DHT22;2434;48.486;7.964;2023-07-31T12:46:08;23.90;34.20
4840;DHT22;2434;48.486;7.964;2023-07-31T12:48:37;23.90;34.70
4840;DHT22;2434;48.486;7.964;2023-07-31T12:51:06;23.80;35.70
4840;DHT22;2434;48.486;7.964;2023-07-31T12:53:35;23.80;35.10
4840;DHT22;2434;48.486;7.964;2023-07-31T12:56:03;23.70;36.50
4840;DHT22;2434;48.486;7.964;2023-07-31T12:58:31;23.70;37.10
4840;DHT22;2434;48.486;7.964;2023-07-31T13:01:01;23.70;36.20
4840;DHT22;2434;48.486;7.964;2023-07-31T13:03:29;23.70;36.40
4840;DHT22;2434;48.486;7.964;2023-07-31T13:05:57;23.70;36.00
4840;DHT22;2434;48.486;7.964;2023-07-31T13:08:26;23.80;37.30
4840;DHT22;2434;48.486;7.964;2023-07-31T13:10:54;23.80;36.40
4840;DHT22;2434;48.486;7.964;2023-07-31T13:13:22;23.70;38.30
4840;DHT22;2434;48.486;7.964;2023-07-31T13:15:50;23.90;38.80
4840;DHT22;2434;48.486;7.964;2023-07-31T13:18:20;23.90;36.20
4840;DHT22;2434;48.486;7.964;2023-07-31T13:20:48;24.00;35.80
4840;DHT22;2434;48.486;7.964;2023-07-31T13:23:16;24.30;36.00
4840;DHT22;2434;48.486;7.964;2023-07-31T13:25:44;24.20;34.10
4840;DHT22;2434;48.486;7.964;2023-07-31T13:28:12;24.20;35.00
4840;DHT22;2434;48.486;7.964;2023-07-31T13:30:41;24.10;34.90
4840;DHT22;2434;48.486;7.964;2023-07-31T13:33:09;23.90;35.30
4840;DHT22;2434;48.486;7.964;2023-07-31T13:35:57;23.90;35.60
4840;DHT22;2434;48.486;7.964;2023-07-31T13:38:25;23.80;36.10
4840;DHT22;2434;48.486;7.964;2023-07-31T13:40:53;23.80;36.80
4840;DHT22;2434;48.486;7.964;2023-07-31T13:43:21;23.80;36.40
4840;DHT22;2434;48.486;7.964;2023-07-31T13:45:49;23.90;38.50
4840;DHT22;2434;48.486;7.964;2023-07-31T13:48:17;23.90;36.60
4840;DHT22;2434;48.486;7.964;2023-07-31T13:50:45;23.90;35.10
4840;DHT22;2434;48.486;7.964;2023-07-31T13:53:15;23.80;35.70
4840;DHT22;2434;48.486;7.964;2023-07-31T13:55:43;23.90;38.60
4840;DHT22;2434;48.486;7.964;2023-07-31T13:58:12;23.90;37.50
4840;DHT22;2434;48.486;7.964;2023-07-31T14:00:40;23.90;34.20
4840;DHT22;2434;48.486;7.964;2023-07-31T14:03:09;23.90;34.50
4840;DHT22;2434;48.486;7.964;2023-07-31T14:05:37;23.80;35.30
4840;DHT22;2434;48.486;7.964;2023-07-31T14:08:06;23.70;34.00
4840;DHT22;2434;48.486;7.964;2023-07-31T14:10:35;23.70;36.10
4840;DHT22;2434;48.486;7.964;2023-07-31T14:13:03;23.70;35.90
4840;DHT22;2434;48.486;7.964;2023-07-31T14:15:32;23.60;36.70
4840;DHT22;2434;48.486;7.964;2023-07-31T14:18:02;23.60;37.40
4840;DHT22;2434;48.486;7.964;2023-07-31T14:20:31;23.70;35.10
4840;DHT22;2434;48.486;7.964;2023-07-31T14:22:59;23.60;35.00
4840;DHT22;2434;48.486;7.964;2023-07-31T14:25:27;23.70;36.10
4840;DHT22;2434;48.486;7.964;2023-07-31T14:27:57;23.70;35.60
4840;DHT22;2434;48.486;7.964;2023-07-31T14:30:25;23.70;33.80
4840;DHT22;2434;48.486;7.964;2023-07-31T14:32:53;23.60;33.80
4840;DHT22;2434;48.486;7.964;2023-07-31T14:35:23;23.60;35.50
4840;DHT22;2434;48.486;7.964;2023-07-31T14:37:51;23.60;34.50
4840;DHT22;2434;48.486;7.964;2023-07-31T14:40:19;23.60;36.00
4840;DHT22;2434;48.486;7.964;2023-07-31T14:42:47;23.60;34.10
4840;DHT22;2434;48.486;7.964;2023-07-31T14:45:17;23.60;34.90
4840;DHT22;2434;48.486;7.964;2023-07-31T14:47:45;23.60;35.10
4840;DHT22;2434;48.486;7.964;2023-07-31T14:50:13;23.70;36.30
4840;DHT22;2434;48.486;7.964;2023-07-31T14:52:45;23.70;36.60
4840;DHT22;2434;48.486;7.964;2023-07-31T14:55:13;23.70;34.80
4840;DHT22;2434;48.486;7.964;2023-07-31T14:57:41;23.80;34.40
4840;DHT22;2434;48.486;7.964;2023-07-31T15:00:10;23.80;35.50
4840;DHT22;2434;48.486;7.964;2023-07-31T15:02:40;23.90;34.20
4840;DHT22;2434;48.486;7.964;2023-07-31T15:05:09;23.90;35.20
4840;DHT22;2434;48.486;7.964;2023-07-31T15:07:37;23.90;34.50
4840;DHT22;2434;48.486;7.964;2023-07-31T15:10:07;23.90;34.70
4840;DHT22;2434;48.486;7.964;2023-07-31T15:12:35;23.90;34.30
4840;DHT22;2434;48.486;7.964;2023-07-31T15:15:05;24.00;35.50
4840;DHT22;2434;48.486;7.964;2023-07-31T15:17:34;24.10;35.90
4840;DHT22;2434;48.486;7.964;2023-07-31T15:20:06;24.20;35.20
4840;DHT22;2434;48.486;7.964;2023-07-31T15:22:34;24.20;35.40
4840;DHT22;2434;48.486;7.964;2023-07-31T15:25:03;24.50;34.80
4840;DHT22;2434;48.486;7.964;2023-07-31T15:27:33;24.60;35.80
4840;DHT22;2434;48.486;7.964;2023-07-31T15:30:01;24.70;34.20
4840;DHT22;2434;48.486;7.964;2023-07-31T15:32:32;24.70;34.60
4840;DHT22;2434;48.486;7.964;2023-07-31T15:35:00;24.70;36.40
4840;DHT22;2434;48.486;7.964;2023-07-31T15:37:30;24.70;34.10
4840;DHT22;2434;48.486;7.964;2023-07-31T15:39:58;24.60;34.10
4840;DHT22;2434;48.486;7.964;2023-07-31T15:42:26;24.60;33.60
4840;DHT22;2434;48.486;7.964;2023-07-31T15:44:54;24.60;33.30
4840;DHT22;2434;48.486;7.964;2023-07-31T15:47:22;24.50;33.60
4840;DHT22;2434;48.486;7.964;2023-07-31T15:49:50;24.40;34.00
4840;DHT22;2434;48.486;7.964;2023-07-31T15:52:19;24.40;34.20
4840;DHT22;2434;48.486;7.964;2023-07-31T15:54:48;24.40;34.60
4840;DHT22;2434;48.486;7.964;2023-07-31T15:57:17;24.30;33.80
4840;DHT22;2434;48.486;7.964;2023-07-31T15:59:45;24.30;35.00
4840;DHT22;2434;48.486;7.964;2023-07-31T16:02:13;24.30;35.50
4840;DHT22;2434;48.486;7.964;2023-07-31T16:04:41;24.30;34.70
4840;DHT22;2434;48.486;7.964;2023-07-31T16:07:09;24.30;35.10
4840;DHT22;2434;48.486;7.964;2023-07-31T16:09:39;24.20;34.20
4840;DHT22;2434;48.486;7.964;2023-07-31T16:12:08;24.30;35.60
4840;DHT22;2434;48.486;7.964;2023-07-31T16:14:38;24.20;37.00
4840;DHT22;2434;48.486;7.964;2023-07-31T16:17:06;24.30;36.20